sensor_id;sensor_type;location;lat;lon;timestamp;P1;durP1;ratioP1;P2;durP2;ratioP2
4407;SDS011;2217;48.460;7.934;2022-10-16T00:00:35;2.00;;;0.80;;
4407;SDS011;2217;48.460;7.934;2022-10-16T00:03:03;2.03;;;0.80;;
4407;SDS011;2217;48.460;7.934;2022-10-16T00:05:30;2.00;;;0.80;;
4407;SDS011;2217;48.460;7.934;2022-10-16T00:07:57;2.00;;;0.80;;
4407;SDS011;2217;48.460;7.934;2022-10-16T00:10:24;2.00;;;0.80;;
4407;SDS011;2217;48.460;7.934;2022-10-16T00:12:51;2.00;;;0.80;;
4407;SDS011;2217;48.460;7.934;2022-10-16T00:15:20;2.00;;;0.80;;
4407;SDS011;2217;48.460;7.934;2022-10-16T00:17:47;2.00;;;0.80;;
4407;SDS011;2217;48.460;7.934;2022-10-16T00:20:14;2.00;;;0.80;;
4407;SDS011;2217;48.460;7.934;2022-10-16T00:22:41;2.00;;;0.80;;
4407;SDS011;2217;48.460;7.934;2022-10-16T00:25:08;2.10;;;0.80;;
4407;SDS011;2217;48.460;7.934;2022-10-16T00:27:35;2.00;;;0.80;;
4407;SDS011;2217;48.460;7.934;2022-10-16T00:30:03;2.00;;;0.80;;
4407;SDS011;2217;48.460;7.934;2022-10-16T00:32:32;2.00;;;0.80;;
4407;SDS011;2217;48.460;7.934;2022-10-16T00:34:59;2.00;;;0.80;;
4407;SDS011;2217;48.460;7.934;2022-10-16T00:37:26;2.00;;;0.80;;
4407;SDS011;2217;48.460;7.934;2022-10-16T00:39:53;2.00;;;0.80;;
4407;SDS011;2217;48.460;7.934;2022-10-16T00:42:20;2.00;;;0.80;;
4407;SDS011;2217;48.460;7.934;2022-10-16T00:44:50;2.00;;;0.80;;
4407;SDS011;2217;48.460;7.934;2022-10-16T00:47:19;2.00;;;0.80;;
4407;SDS011;2217;48.460;7.934;2022-10-16T00:49:50;2.00;;;0.80;;
4407;SDS011;2217;48.460;7.934;2022-10-16T00:52:18;2.00;;;0.80;;
4407;SDS011;2217;48.460;7.934;2022-10-16T00:54:46;2.00;;;0.80;;
4407;SDS011;2217;48.460;7.934;2022-10-16T00:57:13;2.00;;;0.80;;
4407;SDS011;2217;48.460;7.934;2022-10-16T00:59:41;2.00;;;0.80;;
4407;SDS011;2217;48.460;7.934;2022-10-16T01:02:09;2.00;;;0.80;;
4407;SDS011;2217;48.460;7.934;2022-10-16T01:04:38;2.00;;;0.73;;
4407;SDS011;2217;48.460;7.934;2022-10-16T01:07:09;2.00;;;0.80;;
4407;SDS011;2217;48.460;7.934;2022-10-16T01:09:40;2.00;;;0.90;;
4407;SDS011;2217;48.460;7.934;2022-10-16T01:12:12;2.00;;;0.80;;
4407;SDS011;2217;48.460;7.934;2022-10-16T01:14:43;2.00;;;0.80;;
4407;SDS011;2217;48.460;7.934;2022-10-16T01:17:13;2.00;;;0.90;;
4407;SDS011;2217;48.460;7.934;2022-10-16T01:19:50;2.00;;;0.80;;
4407;SDS011;2217;48.460;7.934;2022-10-16T01:22:19;2.00;;;0.80;;
4407;SDS011;2217;48.460;7.934;2022-10-16T01:24:49;2.00;;;0.80;;
4407;SDS011;2217;48.460;7.934;2022-10-16T01:27:19;2.00;;;0.80;;
4407;SDS011;2217;48.460;7.934;2022-10-16T01:29:49;2.00;;;0.80;;
4407;SDS011;2217;48.460;7.934;2022-10-16T01:32:27;2.00;;;0.80;;
4407;SDS011;2217;48.460;7.934;2022-10-16T01:34:57;2.00;;;0.80;;
4407;SDS011;2217;48.460;7.934;2022-10-16T01:37:29;2.00;;;0.80;;
4407;SDS011;2217;48.460;7.934;2022-10-16T01:39:58;2.00;;;0.80;;
4407;SDS011;2217;48.460;7.934;2022-10-16T01:42:28;2.00;;;0.70;;
4407;SDS011;2217;48.460;7.934;2022-10-16T01:44:57;2.00;;;0.80;;
4407;SDS011;2217;48.460;7.934;2022-10-16T01:47:26;2.00;;;0.80;;
4407;SDS011;2217;48.460;7.934;2022-10-16T01:49:53;2.00;;;0.80;;
4407;SDS011;2217;48.460;7.934;2022-10-16T01:52:21;2.00;;;0.80;;
4407;SDS011;2217;48.460;7.934;2022-10-16T01:54:50;2.00;;;0.80;;
4407;SDS011;2217;48.460;7.934;2022-10-16T01:57:17;2.00;;;0.80;;
4407;SDS011;2217;48.460;7.934;2022-10-16T01:59:48;2.00;;;0.80;;
4407;SDS011;2217;48.460;7.934;2022-10-16T02:02:17;2.00;;;0.80;;
4407;SDS011;2217;48.460;7.934;2022-10-16T02:04:45;2.00;;;0.80;;
4407;SDS011;2217;48.460;7.934;2022-10-16T02:07:13;2.00;;;0.80;;
4407;SDS011;2217;48.460;7.934;2022-10-16T02:09:40;2.00;;;0.80;;
4407;SDS011;2217;48.460;7.934;2022-10-16T02:12:10;2.00;;;0.80;;
4407;SDS011;2217;48.460;7.934;2022-10-16T02:14:40;2.03;;;0.80;;
4407;SDS011;2217;48.460;7.934;2022-10-16T02:17:12;2.00;;;0.80;;
4407;SDS011;2217;48.460;7.934;2022-10-16T02:19:40;2.00;;;0.80;;
4407;SDS011;2217;48.460;7.934;2022-10-16T02:22:08;2.00;;;0.80;;
4407;SDS011;2217;48.460;7.934;2022-10-16T02:24:38;2.00;;;0.80;;
4407;SDS011;2217;48.460;7.934;2022-10-16T02:27:06;2.00;;;0.80;;
4407;SDS011;2217;48.460;7.934;2022-10-16T02:29:38;2.03;;;0.90;;
4407;SDS011;2217;48.460;7.934;2022-10-16T02:32:06;2.00;;;0.80;;
4407;SDS011;2217;48.460;7.934;2022-10-16T02:50:12;2.00;;;0.80;;
4407;SDS011;2217;48.460;7.934;2022-10-16T02:52:39;2.00;;;0.80;;
4407;SDS011;2217;48.460;7.934;2022-10-16T02:55:07;2.00;;;0.80;;
4407;SDS011;2217;48.460;7.934;2022-10-16T02:57:34;2.00;;;0.80;;
4407;SDS011;2217;48.460;7.934;2022-10-16T03:00:02;2.00;;;0.80;;
4407;SDS011;2217;48.460;7.934;2022-10-16T03:02:29;2.00;;;0.80;;
4407;SDS011;2217;48.460;7.934;2022-10-16T03:04:57;2.00;;;0.70;;
4407;SDS011;2217;48.460;7.934;2022-10-16T03:07:25;2.00;;;0.80;;
4407;SDS011;2217;48.460;7.934;2022-10-16T03:09:52;2.00;;;0.80;;
4407;SDS011;2217;48.460;7.934;2022-10-16T03:12:20;2.00;;;0.80;;
4407;SDS011;2217;48.460;7.934;2022-10-16T03:14:47;2.00;;;0.80;;
4407;SDS011;2217;48.460;7.934;2022-10-16T03:17:14;2.00;;;0.80;;
4407;SDS011;2217;48.460;7.934;2022-10-16T03:19:42;2.00;;;0.80;;
4407;SDS011;2217;48.460;7.934;2022-10-16T03:22:09;2.00;;;0.80;;
4407;SDS011;2217;48.460;7.934;2022-10-16T03:24:38;2.00;;;0.80;;
4407;SDS011;2217;48.460;7.934;2022-10-16T03:27:05;2.03;;;0.90;;
4407;SDS011;2217;48.460;7.934;2022-10-16T03:29:32;2.00;;;0.90;;
4407;SDS011;2217;48.460;7.934;2022-10-16T03:31:59;2.00;;;0.90;;
4407;SDS011;2217;48.460;7.934;2022-10-16T03:34:27;2.00;;;0.80;;
4407;SDS011;2217;48.460;7.934;2022-10-16T03:36:54;2.00;;;0.80;;
4407;SDS011;2217;48.460;7.934;2022-10-16T03:39:21;2.00;;;0.80;;
4407;SDS011;2217;48.460;7.934;2022-10-16T03:41:50;2.00;;;0.73;;
4407;SDS011;2217;48.460;7.934;2022-10-16T03:44:17;2.00;;;0.80;;
4407;SDS011;2217;48.460;7.934;2022-10-16T03:46:44;2.00;;;0.80;;
4407;SDS011;2217;48.460;7.934;2022-10-16T03:49:11;2.00;;;0.70;;
4407;SDS011;2217;48.460;7.934;2022-10-16T03:51:38;2.00;;;0.80;;
4407;SDS011;2217;48.460;7.934;2022-10-16T03:54:06;2.00;;;0.80;;
4407;SDS011;2217;48.460;7.934;2022-10-16T03:56:33;2.00;;;0.90;;
4407;SDS011;2217;48.460;7.934;2022-10-16T03:59:01;2.00;;;0.80;;
4407;SDS011;2217;48.460;7.934;2022-10-16T04:01:28;2.00;;;0.80;;
4407;SDS011;2217;48.460;7.934;2022-10-16T04:03:55;2.00;;;0.80;;
4407;SDS011;2217;48.460;7.934;2022-10-16T04:06:23;2.00;;;0.80;;
4407;SDS011;2217;48.460;7.934;2022-10-16T04:08:50;2.00;;;0.90;;
4407;SDS011;2217;48.460;7.934;2022-10-16T04:11:17;2.00;;;0.80;;
4407;SDS011;2217;48.460;7.934;2022-10-16T04:13:44;2.00;;;0.80;;
4407;SDS011;2217;48.460;7.934;2022-10-16T04:16:12;2.00;;;0.80;;
4407;SDS011;2217;48.460;7.934;2022-10-16T04:18:40;2.00;;;0.90;;
4407;SDS011;2217;48.460;7.934;2022-10-16T04:21:07;2.00;;;0.80;;
4407;SDS011;2217;48.460;7.934;2022-10-16T04:23:34;2.00;;;0.80;;
4407;SDS011;2217;48.460;7.934;2022-10-16T04:26:01;2.00;;;0.80;;
4407;SDS011;2217;48.460;7.934;2022-10-16T04:28:29;2.00;;;0.80;;
4407;SDS011;2217;48.460;7.934;2022-10-16T04:30:56;2.00;;;0.80;;
4407;SDS011;2217;48.460;7.934;2022-10-16T04:33:24;2.00;;;0.80;;
4407;SDS011;2217;48.460;7.934;2022-10-16T04:35:55;2.00;;;0.80;;
4407;SDS011;2217;48.460;7.934;2022-10-16T04:38:23;2.00;;;0.80;;
4407;SDS011;2217;48.460;7.934;2022-10-16T04:40:50;2.00;;;0.90;;
4407;SDS011;2217;48.460;7.934;2022-10-16T04:43:17;2.00;;;0.80;;
4407;SDS011;2217;48.460;7.934;2022-10-16T04:45:44;2.00;;;0.80;;
4407;SDS011;2217;48.460;7.934;2022-10-16T04:48:11;2.00;;;0.83;;
4407;SDS011;2217;48.460;7.934;2022-10-16T04:50:40;2.00;;;0.80;;
4407;SDS011;2217;48.460;7.934;2022-10-16T04:53:07;2.00;;;0.80;;
4407;SDS011;2217;48.460;7.934;2022-10-16T04:55:34;2.00;;;0.80;;
4407;SDS011;2217;48.460;7.934;2022-10-16T04:58:02;2.00;;;0.80;;
4407;SDS011;2217;48.460;7.934;2022-10-16T05:00:29;2.00;;;0.90;;
4407;SDS011;2217;48.460;7.934;2022-10-16T05:02:56;2.00;;;0.90;;
4407;SDS011;2217;48.460;7.934;2022-10-16T05:05:25;2.00;;;0.80;;
4407;SDS011;2217;48.460;7.934;2022-10-16T05:07:54;2.00;;;0.80;;
4407;SDS011;2217;48.460;7.934;2022-10-16T05:10:21;2.00;;;0.80;;
4407;SDS011;2217;48.460;7.934;2022-10-16T05:12:48;2.00;;;0.80;;
4407;SDS011;2217;48.460;7.934;2022-10-16T05:15:16;2.00;;;0.80;;
4407;SDS011;2217;48.460;7.934;2022-10-16T05:17:43;2.00;;;0.80;;
4407;SDS011;2217;48.460;7.934;2022-10-16T05:20:10;2.00;;;0.80;;
4407;SDS011;2217;48.460;7.934;2022-10-16T05:22:38;2.00;;;0.80;;
4407;SDS011;2217;48.460;7.934;2022-10-16T05:25:07;2.00;;;0.80;;
4407;SDS011;2217;48.460;7.934;2022-10-16T05:27:34;2.00;;;0.80;;
4407;SDS011;2217;48.460;7.934;2022-10-16T05:30:01;2.00;;;0.80;;
4407;SDS011;2217;48.460;7.934;2022-10-16T05:32:28;2.00;;;0.80;;
4407;SDS011;2217;48.460;7.934;2022-10-16T05:34:55;2.00;;;0.80;;
4407;SDS011;2217;48.460;7.934;2022-10-16T05:37:24;2.00;;;0.80;;
4407;SDS011;2217;48.460;7.934;2022-10-16T05:39:51;2.00;;;0.80;;
4407;SDS011;2217;48.460;7.934;2022-10-16T05:42:19;2.00;;;0.80;;
4407;SDS011;2217;48.460;7.934;2022-10-16T05:44:47;1.97;;;0.80;;
4407;SDS011;2217;48.460;7.934;2022-10-16T05:47:14;2.00;;;0.80;;
4407;SDS011;2217;48.460;7.934;2022-10-16T05:49:41;2.00;;;0.80;;
4407;SDS011;2217;48.460;7.934;2022-10-16T05:52:08;2.00;;;0.80;;
4407;SDS011;2217;48.460;7.934;2022-10-16T05:54:35;2.00;;;0.80;;
4407;SDS011;2217;48.460;7.934;2022-10-16T05:57:02;2.00;;;0.80;;
4407;SDS011;2217;48.460;7.934;2022-10-16T05:59:32;2.00;;;0.90;;
4407;SDS011;2217;48.460;7.934;2022-10-16T06:01:59;2.00;;;0.80;;
4407;SDS011;2217;48.460;7.934;2022-10-16T06:04:26;2.00;;;0.80;;
4407;SDS011;2217;48.460;7.934;2022-10-16T06:06:53;2.00;;;0.80;;
4407;SDS011;2217;48.460;7.934;2022-10-16T06:09:20;2.00;;;0.80;;
4407;SDS011;2217;48.460;7.934;2022-10-16T06:11:47;2.00;;;0.80;;
4407;SDS011;2217;48.460;7.934;2022-10-16T06:14:14;2.00;;;0.80;;
4407;SDS011;2217;48.460;7.934;2022-10-16T06:16:43;2.00;;;0.80;;
4407;SDS011;2217;48.460;7.934;2022-10-16T06:19:10;2.00;;;0.83;;
4407;SDS011;2217;48.460;7.934;2022-10-16T06:21:37;2.00;;;0.80;;
4407;SDS011;2217;48.460;7.934;2022-10-16T06:24:04;2.00;;;0.80;;
4407;SDS011;2217;48.460;7.934;2022-10-16T06:26:32;2.00;;;0.80;;
4407;SDS011;2217;48.460;7.934;2022-10-16T06:28:59;2.00;;;0.80;;
4407;SDS011;2217;48.460;7.934;2022-10-16T06:31:26;2.00;;;0.80;;
4407;SDS011;2217;48.460;7.934;2022-10-16T06:33:57;2.00;;;0.80;;
4407;SDS011;2217;48.460;7.934;2022-10-16T06:36:24;2.00;;;0.80;;
4407;SDS011;2217;48.460;7.934;2022-10-16T06:38:51;2.00;;;0.80;;
4407;SDS011;2217;48.460;7.934;2022-10-16T06:41:19;2.00;;;0.80;;
4407;SDS011;2217;48.460;7.934;2022-10-16T06:43:47;2.00;;;0.80;;
4407;SDS011;2217;48.460;7.934;2022-10-16T06:46:15;2.00;;;0.80;;
4407;SDS011;2217;48.460;7.934;2022-10-16T06:48:42;2.00;;;0.80;;
4407;SDS011;2217;48.460;7.934;2022-10-16T06:51:11;2.00;;;0.80;;
4407;SDS011;2217;48.460;7.934;2022-10-16T06:53:40;2.00;;;0.80;;
4407;SDS011;2217;48.460;7.934;2022-10-16T06:56:08;2.00;;;0.80;;
4407;SDS011;2217;48.460;7.934;2022-10-16T06:58:35;2.00;;;0.80;;
4407;SDS011;2217;48.460;7.934;2022-10-16T07:01:03;2.00;;;0.80;;
4407;SDS011;2217;48.460;7.934;2022-10-16T07:03:30;2.00;;;0.80;;
4407;SDS011;2217;48.460;7.934;2022-10-16T07:06:00;2.00;;;0.80;;
4407;SDS011;2217;48.460;7.934;2022-10-16T07:08:30;2.00;;;0.80;;
4407;SDS011;2217;48.460;7.934;2022-10-16T07:10:58;2.00;;;0.80;;
4407;SDS011;2217;48.460;7.934;2022-10-16T07:13:25;2.00;;;0.80;;
4407;SDS011;2217;48.460;7.934;2022-10-16T07:15:52;2.00;;;0.80;;
4407;SDS011;2217;48.460;7.934;2022-10-16T07:18:20;2.00;;;0.73;;
4407;SDS011;2217;48.460;7.934;2022-10-16T07:20:51;2.00;;;0.80;;
4407;SDS011;2217;48.460;7.934;2022-10-16T07:23:18;2.00;;;0.70;;
4407;SDS011;2217;48.460;7.934;2022-10-16T07:25:47;2.00;;;0.80;;
4407;SDS011;2217;48.460;7.934;2022-10-16T07:28:19;2.00;;;0.80;;
4407;SDS011;2217;48.460;7.934;2022-10-16T07:30:47;2.00;;;0.80;;
4407;SDS011;2217;48.460;7.934;2022-10-16T07:33:14;2.00;;;0.80;;
4407;SDS011;2217;48.460;7.934;2022-10-16T07:35:47;2.00;;;0.80;;
4407;SDS011;2217;48.460;7.934;2022-10-16T07:38:14;2.00;;;0.80;;
4407;SDS011;2217;48.460;7.934;2022-10-16T07:40:41;2.00;;;0.80;;
4407;SDS011;2217;48.460;7.934;2022-10-16T07:43:10;2.00;;;0.80;;
4407;SDS011;2217;48.460;7.934;2022-10-16T07:45:37;2.00;;;0.80;;
4407;SDS011;2217;48.460;7.934;2022-10-16T07:48:05;2.00;;;0.80;;
4407;SDS011;2217;48.460;7.934;2022-10-16T07:50:32;2.00;;;0.80;;
4407;SDS011;2217;48.460;7.934;2022-10-16T07:52:59;2.00;;;0.80;;
4407;SDS011;2217;48.460;7.934;2022-10-16T07:55:26;2.00;;;0.70;;
4407;SDS011;2217;48.460;7.934;2022-10-16T07:57:54;2.00;;;0.80;;
4407;SDS011;2217;48.460;7.934;2022-10-16T08:00:22;2.00;;;0.80;;
4407;SDS011;2217;48.460;7.934;2022-10-16T08:02:49;2.00;;;0.80;;
4407;SDS011;2217;48.460;7.934;2022-10-16T08:05:17;2.00;;;0.80;;
4407;SDS011;2217;48.460;7.934;2022-10-16T08:07:47;2.03;;;0.80;;
4407;SDS011;2217;48.460;7.934;2022-10-16T08:10:15;2.07;;;0.80;;
4407;SDS011;2217;48.460;7.934;2022-10-16T08:12:43;2.10;;;0.77;;
4407;SDS011;2217;48.460;7.934;2022-10-16T08:15:10;2.10;;;0.73;;
4407;SDS011;2217;48.460;7.934;2022-10-16T08:17:38;2.10;;;0.80;;
4407;SDS011;2217;48.460;7.934;2022-10-16T08:20:06;2.10;;;0.70;;
4407;SDS011;2217;48.460;7.934;2022-10-16T08:22:33;2.10;;;0.80;;
4407;SDS011;2217;48.460;7.934;2022-10-16T08:25:00;2.10;;;0.80;;
4407;SDS011;2217;48.460;7.934;2022-10-16T08:27:30;2.10;;;0.80;;
4407;SDS011;2217;48.460;7.934;2022-10-16T08:29:57;2.10;;;0.80;;
4407;SDS011;2217;48.460;7.934;2022-10-16T08:32:24;2.10;;;0.80;;
4407;SDS011;2217;48.460;7.934;2022-10-16T08:34:53;2.10;;;0.80;;
4407;SDS011;2217;48.460;7.934;2022-10-16T08:37:20;2.17;;;0.80;;
4407;SDS011;2217;48.460;7.934;2022-10-16T08:39:47;2.20;;;0.80;;
4407;SDS011;2217;48.460;7.934;2022-10-16T08:42:24;2.17;;;0.80;;
4407;SDS011;2217;48.460;7.934;2022-10-16T08:45:02;2.20;;;0.80;;
4407;SDS011;2217;48.460;7.934;2022-10-16T08:47:39;2.20;;;0.80;;
4407;SDS011;2217;48.460;7.934;2022-10-16T08:50:12;2.20;;;0.80;;
4407;SDS011;2217;48.460;7.934;2022-10-16T08:52:40;2.20;;;0.80;;
4407;SDS011;2217;48.460;7.934;2022-10-16T08:55:08;2.20;;;0.80;;
4407;SDS011;2217;48.460;7.934;2022-10-16T08:57:43;2.20;;;0.80;;
4407;SDS011;2217;48.460;7.934;2022-10-16T09:00:12;2.20;;;0.77;;
4407;SDS011;2217;48.460;7.934;2022-10-16T09:02:40;2.20;;;0.70;;
4407;SDS011;2217;48.460;7.934;2022-10-16T09:05:18;2.23;;;0.80;;
4407;SDS011;2217;48.460;7.934;2022-10-16T09:08:00;2.30;;;0.80;;
4407;SDS011;2217;48.460;7.934;2022-10-16T09:11:01;2.30;;;0.70;;
4407;SDS011;2217;48.460;7.934;2022-10-16T09:13:33;2.37;;;0.80;;
4407;SDS011;2217;48.460;7.934;2022-10-16T09:16:07;2.40;;;0.80;;
4407;SDS011;2217;48.460;7.934;2022-10-16T09:18:40;2.40;;;0.80;;
4407;SDS011;2217;48.460;7.934;2022-10-16T09:21:13;2.40;;;0.80;;
4407;SDS011;2217;48.460;7.934;2022-10-16T09:23:41;2.40;;;0.80;;
4407;SDS011;2217;48.460;7.934;2022-10-16T09:26:09;2.47;;;0.90;;
4407;SDS011;2217;48.460;7.934;2022-10-16T09:28:37;2.50;;;0.80;;
4407;SDS011;2217;48.460;7.934;2022-10-16T09:31:04;2.47;;;0.77;;
4407;SDS011;2217;48.460;7.934;2022-10-16T09:33:33;2.50;;;0.80;;
4407;SDS011;2217;48.460;7.934;2022-10-16T09:36:02;2.50;;;0.80;;
4407;SDS011;2217;48.460;7.934;2022-10-16T09:38:32;2.53;;;0.80;;
4407;SDS011;2217;48.460;7.934;2022-10-16T09:41:01;2.50;;;0.80;;
4407;SDS011;2217;48.460;7.934;2022-10-16T09:43:31;2.50;;;0.80;;
4407;SDS011;2217;48.460;7.934;2022-10-16T09:46:01;2.50;;;0.80;;
4407;SDS011;2217;48.460;7.934;2022-10-16T09:48:31;2.50;;;0.80;;
4407;SDS011;2217;48.460;7.934;2022-10-16T09:51:01;2.50;;;0.80;;
4407;SDS011;2217;48.460;7.934;2022-10-16T09:53:39;2.50;;;0.80;;
4407;SDS011;2217;48.460;7.934;2022-10-16T09:56:06;2.50;;;0.80;;
4407;SDS011;2217;48.460;7.934;2022-10-16T09:58:34;2.50;;;0.80;;
4407;SDS011;2217;48.460;7.934;2022-10-16T10:01:02;2.50;;;0.80;;
4407;SDS011;2217;48.460;7.934;2022-10-16T10:03:38;2.50;;;0.80;;
4407;SDS011;2217;48.460;7.934;2022-10-16T10:06:13;2.50;;;0.80;;
4407;SDS011;2217;48.460;7.934;2022-10-16T10:08:53;2.50;;;0.80;;
4407;SDS011;2217;48.460;7.934;2022-10-16T10:14:05;2.47;;;0.80;;
4407;SDS011;2217;48.460;7.934;2022-10-16T10:16:33;2.50;;;0.80;;
4407;SDS011;2217;48.460;7.934;2022-10-16T10:19:00;2.50;;;0.80;;
4407;SDS011;2217;48.460;7.934;2022-10-16T10:21:27;2.50;;;0.80;;
4407;SDS011;2217;48.460;7.934;2022-10-16T10:23:56;2.50;;;0.80;;
4407;SDS011;2217;48.460;7.934;2022-10-16T10:26:25;2.50;;;0.80;;
4407;SDS011;2217;48.460;7.934;2022-10-16T10:28:55;2.50;;;0.80;;
4407;SDS011;2217;48.460;7.934;2022-10-16T10:31:25;2.50;;;0.80;;
4407;SDS011;2217;48.460;7.934;2022-10-16T10:33:55;2.53;;;0.70;;
4407;SDS011;2217;48.460;7.934;2022-10-16T10:36:28;2.60;;;0.80;;
4407;SDS011;2217;48.460;7.934;2022-10-16T10:38:58;2.60;;;0.80;;
4407;SDS011;2217;48.460;7.934;2022-10-16T10:44:37;2.60;;;0.80;;
4407;SDS011;2217;48.460;7.934;2022-10-16T10:47:09;2.60;;;0.80;;
4407;SDS011;2217;48.460;7.934;2022-10-16T10:49:45;2.60;;;0.80;;
4407;SDS011;2217;48.460;7.934;2022-10-16T10:52:23;2.60;;;0.80;;
4407;SDS011;2217;48.460;7.934;2022-10-16T10:55:03;2.60;;;0.80;;
4407;SDS011;2217;48.460;7.934;2022-10-16T10:57:37;2.60;;;0.80;;
4407;SDS011;2217;48.460;7.934;2022-10-16T11:00:12;2.70;;;0.80;;
4407;SDS011;2217;48.460;7.934;2022-10-16T11:02:44;2.60;;;0.80;;
4407;SDS011;2217;48.460;7.934;2022-10-16T11:08:02;2.60;;;0.77;;
4407;SDS011;2217;48.460;7.934;2022-10-16T11:10:33;2.60;;;0.80;;
4407;SDS011;2217;48.460;7.934;2022-10-16T11:13:06;2.67;;;0.80;;
4407;SDS011;2217;48.460;7.934;2022-10-16T11:15:36;2.70;;;0.80;;
4407;SDS011;2217;48.460;7.934;2022-10-16T11:18:05;2.70;;;0.80;;
4407;SDS011;2217;48.460;7.934;2022-10-16T11:20:37;2.70;;;0.80;;
4407;SDS011;2217;48.460;7.934;2022-10-16T11:23:07;2.70;;;0.80;;
4407;SDS011;2217;48.460;7.934;2022-10-16T11:25:40;2.70;;;0.80;;
4407;SDS011;2217;48.460;7.934;2022-10-16T11:28:08;2.67;;;0.80;;
4407;SDS011;2217;48.460;7.934;2022-10-16T11:30:42;2.67;;;0.80;;
4407;SDS011;2217;48.460;7.934;2022-10-16T11:33:17;2.70;;;0.80;;
4407;SDS011;2217;48.460;7.934;2022-10-16T11:35:50;2.67;;;0.80;;
4407;SDS011;2217;48.460;7.934;2022-10-16T11:38:20;2.60;;;0.80;;
4407;SDS011;2217;48.460;7.934;2022-10-16T11:40:53;2.67;;;0.80;;
4407;SDS011;2217;48.460;7.934;2022-10-16T11:43:24;2.70;;;0.80;;
4407;SDS011;2217;48.460;7.934;2022-10-16T11:45:54;2.70;;;0.80;;
4407;SDS011;2217;48.460;7.934;2022-10-16T11:48:24;2.70;;;0.80;;
4407;SDS011;2217;48.460;7.934;2022-10-16T11:50:56;2.70;;;0.90;;
4407;SDS011;2217;48.460;7.934;2022-10-16T11:53:27;2.70;;;0.90;;
4407;SDS011;2217;48.460;7.934;2022-10-16T11:56:00;2.70;;;0.80;;
4407;SDS011;2217;48.460;7.934;2022-10-16T11:58:29;2.73;;;0.80;;
4407;SDS011;2217;48.460;7.934;2022-10-16T12:01:00;2.70;;;0.80;;
4407;SDS011;2217;48.460;7.934;2022-10-16T12:03:31;2.70;;;0.80;;
4407;SDS011;2217;48.460;7.934;2022-10-16T12:06:06;2.73;;;0.80;;
4407;SDS011;2217;48.460;7.934;2022-10-16T12:08:37;2.80;;;0.80;;
4407;SDS011;2217;48.460;7.934;2022-10-16T12:11:09;2.80;;;0.80;;
4407;SDS011;2217;48.460;7.934;2022-10-16T12:13:47;2.83;;;0.80;;
4407;SDS011;2217;48.460;7.934;2022-10-16T12:16:21;2.87;;;0.80;;
4407;SDS011;2217;48.460;7.934;2022-10-16T12:18:49;2.80;;;0.80;;
4407;SDS011;2217;48.460;7.934;2022-10-16T12:21:17;2.87;;;0.80;;
4407;SDS011;2217;48.460;7.934;2022-10-16T12:23:48;2.80;;;0.80;;
4407;SDS011;2217;48.460;7.934;2022-10-16T12:26:25;2.87;;;0.80;;
4407;SDS011;2217;48.460;7.934;2022-10-16T12:28:52;2.80;;;0.80;;
4407;SDS011;2217;48.460;7.934;2022-10-16T12:31:20;2.83;;;0.80;;
4407;SDS011;2217;48.460;7.934;2022-10-16T12:33:54;2.80;;;0.80;;
4407;SDS011;2217;48.460;7.934;2022-10-16T12:36:26;2.90;;;0.80;;
4407;SDS011;2217;48.460;7.934;2022-10-16T12:38:53;2.90;;;0.80;;
4407;SDS011;2217;48.460;7.934;2022-10-16T12:41:27;2.87;;;0.83;;
4407;SDS011;2217;48.460;7.934;2022-10-16T12:43:54;2.80;;;0.73;;
4407;SDS011;2217;48.460;7.934;2022-10-16T12:46:23;2.80;;;0.90;;
4407;SDS011;2217;48.460;7.934;2022-10-16T12:48:50;2.80;;;0.80;;
4407;SDS011;2217;48.460;7.934;2022-10-16T12:51:22;2.87;;;0.80;;
4407;SDS011;2217;48.460;7.934;2022-10-16T12:53:57;2.80;;;0.80;;
4407;SDS011;2217;48.460;7.934;2022-10-16T12:56:27;2.80;;;0.80;;
4407;SDS011;2217;48.460;7.934;2022-10-16T12:59:02;2.80;;;0.80;;
4407;SDS011;2217;48.460;7.934;2022-10-16T13:01:36;2.87;;;0.80;;
4407;SDS011;2217;48.460;7.934;2022-10-16T13:04:18;2.80;;;0.80;;
4407;SDS011;2217;48.460;7.934;2022-10-16T13:06:50;2.90;;;0.80;;
4407;SDS011;2217;48.460;7.934;2022-10-16T13:09:20;2.80;;;0.80;;
4407;SDS011;2217;48.460;7.934;2022-10-16T13:14:36;2.87;;;0.80;;
4407;SDS011;2217;48.460;7.934;2022-10-16T13:17:09;2.83;;;0.80;;
4407;SDS011;2217;48.460;7.934;2022-10-16T13:19:38;2.87;;;0.80;;
4407;SDS011;2217;48.460;7.934;2022-10-16T13:22:11;2.80;;;0.80;;
4407;SDS011;2217;48.460;7.934;2022-10-16T13:24:46;2.90;;;0.80;;
4407;SDS011;2217;48.460;7.934;2022-10-16T13:27:18;2.90;;;0.80;;
4407;SDS011;2217;48.460;7.934;2022-10-16T13:29:50;2.90;;;0.80;;
4407;SDS011;2217;48.460;7.934;2022-10-16T13:32:20;2.90;;;0.80;;
4407;SDS011;2217;48.460;7.934;2022-10-16T13:34:48;3.00;;;0.80;;
4407;SDS011;2217;48.460;7.934;2022-10-16T13:37:17;3.00;;;0.80;;
4407;SDS011;2217;48.460;7.934;2022-10-16T13:39:44;3.10;;;0.83;;
4407;SDS011;2217;48.460;7.934;2022-10-16T13:42:12;3.20;;;0.80;;
4407;SDS011;2217;48.460;7.934;2022-10-16T13:44:41;3.20;;;0.80;;
4407;SDS011;2217;48.460;7.934;2022-10-16T13:47:17;3.20;;;0.80;;
4407;SDS011;2217;48.460;7.934;2022-10-16T13:49:44;3.20;;;0.80;;
4407;SDS011;2217;48.460;7.934;2022-10-16T13:52:15;3.27;;;0.80;;
4407;SDS011;2217;48.460;7.934;2022-10-16T13:54:43;3.27;;;0.80;;
4407;SDS011;2217;48.460;7.934;2022-10-16T13:57:11;3.30;;;0.80;;
4407;SDS011;2217;48.460;7.934;2022-10-16T13:59:39;3.33;;;0.80;;
4407;SDS011;2217;48.460;7.934;2022-10-16T14:02:08;3.40;;;0.80;;
4407;SDS011;2217;48.460;7.934;2022-10-16T14:04:43;3.40;;;0.80;;
4407;SDS011;2217;48.460;7.934;2022-10-16T14:07:12;3.40;;;0.80;;
4407;SDS011;2217;48.460;7.934;2022-10-16T14:09:40;3.40;;;0.80;;
4407;SDS011;2217;48.460;7.934;2022-10-16T14:12:08;3.40;;;0.80;;
4407;SDS011;2217;48.460;7.934;2022-10-16T14:14:40;3.40;;;0.80;;
4407;SDS011;2217;48.460;7.934;2022-10-16T14:17:13;3.40;;;0.80;;
4407;SDS011;2217;48.460;7.934;2022-10-16T14:19:40;3.40;;;0.80;;
4407;SDS011;2217;48.460;7.934;2022-10-16T14:22:19;3.40;;;0.80;;
4407;SDS011;2217;48.460;7.934;2022-10-16T14:24:49;3.40;;;0.80;;
4407;SDS011;2217;48.460;7.934;2022-10-16T14:27:27;3.40;;;0.80;;
4407;SDS011;2217;48.460;7.934;2022-10-16T14:30:05;3.40;;;0.80;;
4407;SDS011;2217;48.460;7.934;2022-10-16T14:32:35;3.40;;;0.80;;
4407;SDS011;2217;48.460;7.934;2022-10-16T14:35:02;3.40;;;0.80;;
4407;SDS011;2217;48.460;7.934;2022-10-16T14:37:31;3.40;;;0.80;;
4407;SDS011;2217;48.460;7.934;2022-10-16T14:39:58;3.40;;;0.80;;
4407;SDS011;2217;48.460;7.934;2022-10-16T14:42:26;3.40;;;0.80;;
4407;SDS011;2217;48.460;7.934;2022-10-16T14:44:53;3.40;;;0.80;;
4407;SDS011;2217;48.460;7.934;2022-10-16T14:47:22;3.40;;;0.80;;
4407;SDS011;2217;48.460;7.934;2022-10-16T14:49:51;3.40;;;0.80;;
4407;SDS011;2217;48.460;7.934;2022-10-16T14:52:20;3.40;;;0.80;;
4407;SDS011;2217;48.460;7.934;2022-10-16T14:54:49;3.40;;;0.80;;
4407;SDS011;2217;48.460;7.934;2022-10-16T14:57:20;3.40;;;0.80;;
4407;SDS011;2217;48.460;7.934;2022-10-16T14:59:49;3.40;;;0.80;;
4407;SDS011;2217;48.460;7.934;2022-10-16T15:02:18;3.40;;;0.80;;
4407;SDS011;2217;48.460;7.934;2022-10-16T15:04:47;3.40;;;0.80;;
4407;SDS011;2217;48.460;7.934;2022-10-16T15:07:14;3.40;;;0.80;;
4407;SDS011;2217;48.460;7.934;2022-10-16T15:09:42;3.40;;;0.80;;
4407;SDS011;2217;48.460;7.934;2022-10-16T15:12:10;3.40;;;0.80;;
4407;SDS011;2217;48.460;7.934;2022-10-16T15:14:37;3.40;;;0.80;;
4407;SDS011;2217;48.460;7.934;2022-10-16T15:17:04;3.40;;;0.80;;
4407;SDS011;2217;48.460;7.934;2022-10-16T15:19:32;3.40;;;0.80;;
4407;SDS011;2217;48.460;7.934;2022-10-16T15:21:59;3.40;;;0.80;;
4407;SDS011;2217;48.460;7.934;2022-10-16T15:24:26;3.40;;;0.80;;
4407;SDS011;2217;48.460;7.934;2022-10-16T15:26:53;3.40;;;0.80;;
4407;SDS011;2217;48.460;7.934;2022-10-16T15:29:22;3.40;;;0.80;;
4407;SDS011;2217;48.460;7.934;2022-10-16T15:31:49;3.40;;;0.80;;
4407;SDS011;2217;48.460;7.934;2022-10-16T15:34:16;3.43;;;0.80;;
4407;SDS011;2217;48.460;7.934;2022-10-16T15:36:44;3.40;;;0.80;;
4407;SDS011;2217;48.460;7.934;2022-10-16T15:39:12;3.40;;;0.80;;
4407;SDS011;2217;48.460;7.934;2022-10-16T15:41:40;3.43;;;0.90;;
4407;SDS011;2217;48.460;7.934;2022-10-16T15:44:07;3.43;;;0.80;;
4407;SDS011;2217;48.460;7.934;2022-10-16T15:46:36;3.43;;;0.80;;
4407;SDS011;2217;48.460;7.934;2022-10-16T15:49:03;3.40;;;0.80;;
4407;SDS011;2217;48.460;7.934;2022-10-16T15:51:31;3.40;;;0.80;;
4407;SDS011;2217;48.460;7.934;2022-10-16T15:53:59;3.37;;;0.80;;